CANAVERAL NM East of Cape Canaveral, FL (41009)

Conditions for Monday

Daily
Weekly
Monthly
Marine Data Graph
Ad Blocker Enabled

Marine & Boating Location Search

Enter a coastal zip code for marine weather.

General Information

Location: 28.522 North -80.188 West
Buoy Type: 3-meter discus buoy
Buoy Hull: 3D86
Payload: AMPS payload
Owned by: NDBC
Windspeed: Measured by obtained from anemometer
Sea Surface: Measured by Intake

Weather and Wave Data

Time Temp Humidity Wind Dominant Wave Wind Wave Wave Swell Pressure
  Air
(°F)
Water
(°F)
  Dir Speed
(kts)
Speed
(mph)
Period
(sec)
Height
(ft)
Range
(ft)
Period
(sec)
Height
(ft)
Range
(ft)
Period
(sec)
Height
(ft)
Range
(ft)
Atmo.
(in)
Tend.
(in)
20:20 70 77 63 WNW 21.4 24.6 - - - - - - 29.69 -
20:50 69 77 66 West 21.4 24.6 14 11.81 exactly 11.8 5 4.92 4.10 - 5.74 14 11.48 10.66 - 12.30 29.70 +0.04
21:20 69 77 66 WNW 21.4 24.6 - - - - - - 29.70 -
21:50 68 77 67 WNW 21.4 24.6 12 12.80 exactly 12.8 5 4.92 4.10 - 5.74 12 11.48 10.66 - 12.30 29.72 +0.05
22:20 67 77 72 WNW 19.4 22.4 - - - - - - 29.72 -
22:50 67 77 72 WNW 21.4 24.6 15 14.11 exactly 14.1 8 4.92 4.10 - 5.74 15 13.12 12.30 - 13.94 29.73 +0.04
23:20 67 76 69 WNW 21.4 24.6 - - - - - - 29.73 -
23:50 66 76 74 NW 19.4 22.4 13 11.81 exactly 11.8 5 4.92 4.10 - 5.74 13 9.84 9.02 - 10.66 29.73 +0.04
00:20 66 76 70 NW 19.4 22.4 - - - - - - 29.74 -
00:50 65 76 75 WNW 19.4 22.4 14 14.11 exactly 14.1 7 4.92 4.10 - 5.74 14 13.12 12.30 - 13.94 29.74 +0.02
01:20 64 76 75 WNW 19.4 22.4 - - - - - - 29.74 -
01:50 64 76 74 WNW 17.5 20.1 13 11.48 exactly 11.5 6 4.92 4.10 - 5.74 13 9.84 9.02 - 10.66 29.74 +0.01
02:20 64 76 71 WNW 19.4 22.4 - - - - - - 29.73 -
02:50 62 76 77 WNW 17.5 20.1 14 11.15 exactly 11.2 6 4.92 4.10 - 5.74 14 9.84 9.02 - 10.66 29.73 -
03:20 62 76 75 WNW 17.5 20.1 - - - - - - 29.73 -
03:50 61 76 77 NW 19.4 22.4 14 11.15 exactly 11.2 8 4.92 4.10 - 5.74 14 9.84 9.02 - 10.66 29.73 -0.01
04:20 60 76 78 WNW 21.4 24.6 - - - - - - 29.73 -
04:50 61 76 69 NW 21.4 24.6 15 10.50 exactly 10.5 6 4.92 4.10 - 5.74 15 9.84 9.02 - 10.66 29.73 -
05:20 60 76 66 WNW 21.4 24.6 - - - - - - 29.73 -
05:50 60 76 64 WNW 21.4 24.6 14 10.17 exactly 10.2 6 6.56 5.74 - 7.38 14 8.20 7.38 - 9.02 29.74 -
06:20 60 76 61 WNW 19.4 22.4 - - - - - - 29.74 -
06:50 60 76 64 NW 21.4 24.6 13 10.17 exactly 10.2 6 6.56 5.74 - 7.38 13 8.20 7.38 - 9.02 29.74 +0.01
07:20 60 76 60 NW 23.3 26.8 - - - - - - 29.75 -
07:50 60 76 64 NW 23.3 26.8 14 9.51 exactly 9.5 6 6.56 5.74 - 7.38 14 6.56 5.74 - 7.38 29.75 +0.02
08:20 58 76 66 WNW 21.4 24.6 - - - - - - 29.77 -
08:50 58 76 67 WNW 21.4 24.6 14 10.83 exactly 10.8 6 6.56 5.74 - 7.38 14 9.84 9.02 - 10.66 29.78 +0.04
09:20 58 76 68 NW 21.4 24.6 - - - - - - 29.80 -
09:50 58 76 66 NW 21.4 24.6 14 9.19 exactly 9.2 7 4.92 4.10 - 5.74 14 6.56 5.74 - 7.38 29.81 +0.06
10:20 57 76 67 WNW 19.4 22.4 - - - - - - 29.81 -
10:50 58 76 63 WNW 21.4 24.6 14 9.84 exactly 9.8 6 6.56 5.74 - 7.38 14 8.20 7.38 - 9.02 29.81 +0.06
11:20 58 76 60 WNW 19.4 22.4 - - - - - - 29.81 -
11:50 59 76 60 WNW 15.6 17.9 15 9.19 exactly 9.2 7 4.92 4.10 - 5.74 15 6.56 5.74 - 7.38 29.81 +0.03
12:20 59 76 59 WNW 17.5 20.1 - - - - - - 29.81 -
12:50 59 76 55 WNW 17.5 20.1 14 9.51 exactly 9.5 6 4.92 4.10 - 5.74 14 8.20 7.38 - 9.02 29.79 -0.01
13:20 60 76 53 WNW 17.5 20.1 - - - - - - 29.78 -
13:50 61 76 46 WNW 15.6 17.9 14 8.86 exactly 8.9 7 4.92 4.10 - 5.74 14 6.56 5.74 - 7.38 29.77 -0.04
14:20 62 76 42 WNW 15.6 17.9 - - - - - - 29.75 -
14:50 63 76 38 West 17.5 20.1 14 9.19 exactly 9.2 8 4.92 4.10 - 5.74 14 8.20 7.38 - 9.02 29.74 -0.07
15:20 64 76 33 WNW 15.6 17.9 - - - - - - 29.73 -
15:50 65 76 32 West 17.5 20.1 13 9.19 exactly 9.2 7 4.92 4.10 - 5.74 13 8.20 7.38 - 9.02 29.72 -0.08
16:20 66 76 32 West 17.5 20.1 - - - - - - 29.71 -
16:50 66 76 29 West 19.4 22.4 13 8.53 exactly 8.5 6 3.28 2.46 - 4.10 13 8.20 7.38 - 9.02 29.70 -0.06
17:20 67 76 27 West 19.4 22.4 - - - - - - 29.70 -
17:50 67 76 28 West 19.4 22.4 14 9.19 exactly 9.2 4 4.92 4.10 - 5.74 14 8.20 7.38 - 9.02 29.70 -0.04
18:20 67 76 25 West 19.4 22.4 - - - - - - 29.70 -
18:50 67 76 26 West 21.4 24.6 14 8.20 exactly 8.2 5 4.92 4.10 - 5.74 14 6.56 5.74 - 7.38 29.71 -
19:20 67 76 25 West 21.4 24.6 - - - - - - 29.72 -
19:50 67 76 26 West 19.4 22.4 14 8.53 exactly 8.5 4 4.92 4.10 - 5.74 14 8.20 7.38 - 9.02 29.73 +0.02
20:20 67 76 29 West 19.4 22.4 - - - - - - 29.73 -
20:50 66 76 35 West 23.3 26.8 14 8.53 exactly 8.5 5 4.92 4.10 - 5.74 14 6.56 5.74 - 7.38 29.74 +0.04
21:20 65 76 41 WNW 23.3 26.8 - - - - - - 29.75 -
21:50 64 76 45 West 23.3 26.8 13 8.20 exactly 8.2 5 4.92 4.10 - 5.74 13 6.56 5.74 - 7.38 29.77 +0.06
22:20 63 76 48 WNW 23.3 26.8 - - - - - - 29.78 -
22:50 63 76 49 WNW 23.3 26.8 14 8.53 exactly 8.5 4 6.56 5.74 - 7.38 14 6.56 5.74 - 7.38 29.79 +0.06
23:20 64 76 45 WNW 23.3 26.8 - - - - - - 29.79 -
23:50 64 76 37 WNW 25.3 29.1 15 8.53 exactly 8.5 5 4.92 4.10 - 5.74 15 6.56 5.74 - 7.38 29.79 +0.04
00:20 63 76 37 NW 25.3 29.1 - - - - - - 29.79 -
00:50 63 76 35 WNW 25.3 29.1 14 8.86 exactly 8.9 5 6.56 5.74 - 7.38 14 6.56 5.74 - 7.38 29.78 +0.02
01:20 62 76 37 NW 25.3 29.1 - - - - - - 29.78 -
01:50 62 76 33 NW 25.3 29.1 15 8.53 exactly 8.5 6 6.56 5.74 - 7.38 15 6.56 5.74 - 7.38 29.78 -0.01
02:20 61 76 39 NW 23.3 26.8 - - - - - - 29.78 -
02:50 61 76 39 NW 23.3 26.8 15 8.20 exactly 8.2 7 6.56 5.74 - 7.38 15 4.92 4.10 - 5.74 29.77 -0.01
03:20 60 76 37 NW 23.3 26.8 - - - - - - 29.78 -
03:50 60 76 38 NW 21.4 24.6 7 7.87 exactly 7.9 7 6.56 5.74 - 7.38 14 4.92 4.10 - 5.74 29.78 -

Detailed Wave Spectra

Time Water Depth Wave Height Spectral Peak Period Average Wave Period Sampling Interval Wave Record
20:00 135 ft 13.39 ft 14.8 sec 9.2 sec 0.6 sec 2400 sec
21:00 135 ft 11.78 ft 13.8 sec 8.2 sec 0.6 sec 2400 sec
23:00 135 ft 14.24 ft 14.8 sec 9.0 sec 0.6 sec 2400 sec
00:00 135 ft 11.75 ft 12.9 sec 8.2 sec 0.6 sec 2400 sec
01:00 135 ft 14.04 ft 13.8 sec 9.1 sec 0.6 sec 2400 sec
02:00 135 ft 11.35 ft 12.9 sec 7.9 sec 0.6 sec 2400 sec
03:00 135 ft 10.99 ft 13.8 sec 8.0 sec 0.6 sec 2400 sec
05:00 135 ft 10.63 ft 14.8 sec 8.0 sec 0.6 sec 2400 sec
06:00 135 ft 10.24 ft 13.8 sec 7.5 sec 0.6 sec 2400 sec
07:00 135 ft 10.14 ft 12.9 sec 7.3 sec 0.6 sec 2400 sec
08:00 135 ft 9.38 ft 13.8 sec 6.7 sec 0.6 sec 2400 sec
09:00 135 ft 10.76 ft 13.8 sec 7.5 sec 0.6 sec 2400 sec
11:00 135 ft 9.84 ft 13.8 sec 7.1 sec 0.6 sec 2400 sec
12:00 135 ft 9.15 ft 14.8 sec 6.9 sec 0.6 sec 2400 sec
13:00 135 ft 9.48 ft 13.8 sec 7.2 sec 0.6 sec 2400 sec
14:00 135 ft 8.96 ft 13.8 sec 7.0 sec 0.6 sec 2400 sec
15:00 135 ft 9.19 ft 13.8 sec 7.5 sec 0.6 sec 2400 sec
16:00 135 ft 9.25 ft 12.9 sec 7.9 sec 0.6 sec 2400 sec
17:00 135 ft 8.40 ft 12.9 sec 7.2 sec 0.6 sec 2400 sec
18:00 135 ft 9.32 ft 13.8 sec 7.4 sec 0.6 sec 2400 sec
19:00 135 ft 8.23 ft 13.8 sec 7.0 sec 0.6 sec 2400 sec
20:00 135 ft 8.66 ft 13.8 sec 7.0 sec 0.6 sec 2400 sec
21:00 135 ft 8.43 ft 13.8 sec 7.0 sec 0.6 sec 2400 sec
22:00 135 ft 8.33 ft 12.9 sec 6.5 sec 0.6 sec 2400 sec
23:00 135 ft 8.53 ft 13.8 sec 6.2 sec 0.6 sec 2400 sec
00:00 135 ft 8.56 ft 14.8 sec 6.5 sec 0.6 sec 2400 sec
01:00 135 ft 8.76 ft 13.8 sec 6.3 sec 0.6 sec 2400 sec
02:00 135 ft 8.43 ft 14.8 sec 6.2 sec 0.6 sec 2400 sec
03:00 135 ft 8.23 ft 14.8 sec 6.0 sec 0.6 sec 2400 sec